Terminal Aerodrome Forecast
Issued by NWS

Home | Current Version | Previous Version | Text Only | Print | Product List | Glossary On
Versions: 1 2 3 4 5 6 7 8 9 10 11 12
000
FTUS45 KABQ 180500
TAFGUP
TAF
KGUP 180524Z 1806/1906 27006KT P6SM BKN070
      TEMPO 1808/1812 4SM -SN OVC025
     FM181700 30011KT P6SM BKN050
     FM182000 31015G25KT P6SM VCSH BKN070
     FM190200 33005KT P6SM BKN100=

USA.gov is the U.S. government's official web portal to all federal, state and local government web resources and services.